sensor_id;sensor_type;location;lat;lon;timestamp;P1;durP1;ratioP1;P2;durP2;ratioP2
42602;SDS011;28233;55.748;48.752;2023-04-12T00:01:12;8.25;;;3.03;;
42602;SDS011;28233;55.748;48.752;2023-04-12T00:03:15;9.68;;;2.97;;
42602;SDS011;28233;55.748;48.752;2023-04-12T00:05:22;4.57;;;2.60;;
42602;SDS011;28233;55.748;48.752;2023-04-12T00:07:28;6.28;;;3.03;;
42602;SDS011;28233;55.748;48.752;2023-04-12T00:09:31;4.88;;;2.60;;
42602;SDS011;28233;55.748;48.752;2023-04-12T00:11:37;14.30;;;3.55;;
42602;SDS011;28233;55.748;48.752;2023-04-12T00:13:40;9.93;;;2.97;;
42602;SDS011;28233;55.748;48.752;2023-04-12T00:15:43;6.85;;;3.38;;
42602;SDS011;28233;55.748;48.752;2023-04-12T00:17:47;7.07;;;3.60;;
42602;SDS011;28233;55.748;48.752;2023-04-12T00:19:49;8.65;;;3.35;;
42602;SDS011;28233;55.748;48.752;2023-04-12T00:21:52;15.65;;;4.80;;
42602;SDS011;28233;55.748;48.752;2023-04-12T00:23:55;5.07;;;2.90;;
42602;SDS011;28233;55.748;48.752;2023-04-12T00:25:58;5.45;;;2.72;;
42602;SDS011;28233;55.748;48.752;2023-04-12T00:28:01;7.03;;;3.03;;
42602;SDS011;28233;55.748;48.752;2023-04-12T00:30:04;4.65;;;2.88;;
42602;SDS011;28233;55.748;48.752;2023-04-12T00:32:08;6.60;;;2.60;;
42602;SDS011;28233;55.748;48.752;2023-04-12T00:34:11;6.93;;;3.72;;
42602;SDS011;28233;55.748;48.752;2023-04-12T00:36:13;11.10;;;4.00;;
42602;SDS011;28233;55.748;48.752;2023-04-12T00:38:17;5.15;;;2.83;;
42602;SDS011;28233;55.748;48.752;2023-04-12T00:40:20;7.38;;;3.47;;
42602;SDS011;28233;55.748;48.752;2023-04-12T00:42:23;7.38;;;3.78;;
42602;SDS011;28233;55.748;48.752;2023-04-12T00:44:26;16.58;;;3.58;;
42602;SDS011;28233;55.748;48.752;2023-04-12T00:46:29;6.90;;;3.63;;
42602;SDS011;28233;55.748;48.752;2023-04-12T00:48:32;10.07;;;3.53;;
42602;SDS011;28233;55.748;48.752;2023-04-12T00:50:35;5.38;;;2.83;;
42602;SDS011;28233;55.748;48.752;2023-04-12T00:52:38;7.78;;;3.05;;
42602;SDS011;28233;55.748;48.752;2023-04-12T00:54:41;7.80;;;3.92;;
42602;SDS011;28233;55.748;48.752;2023-04-12T00:56:45;7.95;;;3.35;;
42602;SDS011;28233;55.748;48.752;2023-04-12T00:58:48;7.30;;;3.60;;
42602;SDS011;28233;55.748;48.752;2023-04-12T01:00:51;8.55;;;3.25;;
42602;SDS011;28233;55.748;48.752;2023-04-12T01:02:56;9.30;;;3.17;;
42602;SDS011;28233;55.748;48.752;2023-04-12T01:05:00;6.75;;;3.05;;
42602;SDS011;28233;55.748;48.752;2023-04-12T01:07:24;8.00;;;3.33;;
42602;SDS011;28233;55.748;48.752;2023-04-12T01:12:02;10.18;;;3.17;;
42602;SDS011;28233;55.748;48.752;2023-04-12T01:16:41;5.47;;;2.80;;
42602;SDS011;28233;55.748;48.752;2023-04-12T01:18:48;9.10;;;3.35;;
42602;SDS011;28233;55.748;48.752;2023-04-12T01:20:59;9.70;;;3.15;;
42602;SDS011;28233;55.748;48.752;2023-04-12T01:28:31;7.28;;;3.15;;
42602;SDS011;28233;55.748;48.752;2023-04-12T01:30:35;7.53;;;2.70;;
42602;SDS011;28233;55.748;48.752;2023-04-12T01:32:40;6.28;;;3.38;;
42602;SDS011;28233;55.748;48.752;2023-04-12T01:34:46;7.40;;;3.28;;
42602;SDS011;28233;55.748;48.752;2023-04-12T01:36:50;10.40;;;3.20;;
42602;SDS011;28233;55.748;48.752;2023-04-12T01:38:54;9.15;;;3.38;;
42602;SDS011;28233;55.748;48.752;2023-04-12T01:40:57;8.00;;;3.22;;
42602;SDS011;28233;55.748;48.752;2023-04-12T01:43:08;6.07;;;3.50;;
42602;SDS011;28233;55.748;48.752;2023-04-12T01:45:12;4.13;;;2.50;;
42602;SDS011;28233;55.748;48.752;2023-04-12T01:47:15;7.85;;;3.22;;
42602;SDS011;28233;55.748;48.752;2023-04-12T01:49:18;7.20;;;3.08;;
42602;SDS011;28233;55.748;48.752;2023-04-12T01:52:07;8.73;;;3.03;;
42602;SDS011;28233;55.748;48.752;2023-04-12T01:53:59;8.15;;;3.63;;
42602;SDS011;28233;55.748;48.752;2023-04-12T01:56:12;10.00;;;3.08;;
42602;SDS011;28233;55.748;48.752;2023-04-12T01:58:21;6.13;;;2.85;;
42602;SDS011;28233;55.748;48.752;2023-04-12T02:00:23;8.05;;;4.13;;
42602;SDS011;28233;55.748;48.752;2023-04-12T02:02:28;6.78;;;3.38;;
42602;SDS011;28233;55.748;48.752;2023-04-12T02:04:35;8.98;;;3.65;;
42602;SDS011;28233;55.748;48.752;2023-04-12T02:06:39;5.80;;;2.85;;
42602;SDS011;28233;55.748;48.752;2023-04-12T02:08:43;8.55;;;3.25;;
42602;SDS011;28233;55.748;48.752;2023-04-12T02:10:46;8.88;;;4.05;;
42602;SDS011;28233;55.748;48.752;2023-04-12T02:12:49;6.45;;;3.58;;
42602;SDS011;28233;55.748;48.752;2023-04-12T02:14:52;8.43;;;3.58;;
42602;SDS011;28233;55.748;48.752;2023-04-12T02:16:55;5.63;;;3.90;;
42602;SDS011;28233;55.748;48.752;2023-04-12T02:18:59;11.98;;;4.10;;
42602;SDS011;28233;55.748;48.752;2023-04-12T02:21:02;6.03;;;3.83;;
42602;SDS011;28233;55.748;48.752;2023-04-12T02:23:05;7.78;;;3.72;;
42602;SDS011;28233;55.748;48.752;2023-04-12T02:25:07;6.53;;;3.50;;
42602;SDS011;28233;55.748;48.752;2023-04-12T02:27:10;8.27;;;4.03;;
42602;SDS011;28233;55.748;48.752;2023-04-12T02:29:13;8.98;;;3.70;;
42602;SDS011;28233;55.748;48.752;2023-04-12T02:31:16;7.85;;;3.63;;
42602;SDS011;28233;55.748;48.752;2023-04-12T02:33:19;7.20;;;4.57;;
42602;SDS011;28233;55.748;48.752;2023-04-12T02:35:29;10.52;;;3.28;;
42602;SDS011;28233;55.748;48.752;2023-04-12T02:37:33;8.52;;;4.15;;
42602;SDS011;28233;55.748;48.752;2023-04-12T02:39:35;6.00;;;3.65;;
42602;SDS011;28233;55.748;48.752;2023-04-12T02:41:38;8.88;;;3.60;;
42602;SDS011;28233;55.748;48.752;2023-04-12T02:43:41;6.32;;;3.70;;
42602;SDS011;28233;55.748;48.752;2023-04-12T02:45:44;7.03;;;4.30;;
42602;SDS011;28233;55.748;48.752;2023-04-12T02:47:48;10.65;;;4.32;;
42602;SDS011;28233;55.748;48.752;2023-04-12T02:49:50;11.63;;;3.00;;
42602;SDS011;28233;55.748;48.752;2023-04-12T02:51:53;7.25;;;3.53;;
42602;SDS011;28233;55.748;48.752;2023-04-12T02:53:56;6.90;;;3.70;;
42602;SDS011;28233;55.748;48.752;2023-04-12T02:55:59;6.50;;;3.47;;
42602;SDS011;28233;55.748;48.752;2023-04-12T02:58:02;8.55;;;3.58;;
42602;SDS011;28233;55.748;48.752;2023-04-12T03:00:05;11.73;;;3.72;;
42602;SDS011;28233;55.748;48.752;2023-04-12T03:02:18;6.15;;;3.63;;
42602;SDS011;28233;55.748;48.752;2023-04-12T03:04:22;8.18;;;3.72;;
42602;SDS011;28233;55.748;48.752;2023-04-12T03:06:31;6.90;;;3.33;;
42602;SDS011;28233;55.748;48.752;2023-04-12T03:08:34;9.02;;;3.63;;
42602;SDS011;28233;55.748;48.752;2023-04-12T03:10:37;6.28;;;3.70;;
42602;SDS011;28233;55.748;48.752;2023-04-12T03:12:40;5.72;;;3.45;;
42602;SDS011;28233;55.748;48.752;2023-04-12T03:14:43;10.50;;;3.85;;
42602;SDS011;28233;55.748;48.752;2023-04-12T03:16:45;8.52;;;3.92;;
42602;SDS011;28233;55.748;48.752;2023-04-12T03:18:50;6.38;;;2.90;;
42602;SDS011;28233;55.748;48.752;2023-04-12T03:20:53;5.78;;;3.25;;
42602;SDS011;28233;55.748;48.752;2023-04-12T03:22:55;7.53;;;3.53;;
42602;SDS011;28233;55.748;48.752;2023-04-12T03:24:58;6.60;;;3.70;;
42602;SDS011;28233;55.748;48.752;2023-04-12T03:27:01;6.35;;;3.60;;
42602;SDS011;28233;55.748;48.752;2023-04-12T03:29:04;7.60;;;3.95;;
42602;SDS011;28233;55.748;48.752;2023-04-12T03:31:12;8.43;;;3.85;;
42602;SDS011;28233;55.748;48.752;2023-04-12T03:33:14;13.45;;;3.33;;
42602;SDS011;28233;55.748;48.752;2023-04-12T03:35:17;8.75;;;3.38;;
42602;SDS011;28233;55.748;48.752;2023-04-12T03:37:20;8.10;;;3.13;;
42602;SDS011;28233;55.748;48.752;2023-04-12T03:39:23;11.35;;;3.78;;
42602;SDS011;28233;55.748;48.752;2023-04-12T03:41:27;4.88;;;2.92;;
42602;SDS011;28233;55.748;48.752;2023-04-12T03:43:30;7.30;;;3.50;;
42602;SDS011;28233;55.748;48.752;2023-04-12T03:45:37;7.45;;;3.58;;
42602;SDS011;28233;55.748;48.752;2023-04-12T03:47:39;5.38;;;3.50;;
42602;SDS011;28233;55.748;48.752;2023-04-12T03:49:43;6.18;;;3.00;;
42602;SDS011;28233;55.748;48.752;2023-04-12T03:51:58;11.82;;;3.90;;
42602;SDS011;28233;55.748;48.752;2023-04-12T03:54:01;7.05;;;3.60;;
42602;SDS011;28233;55.748;48.752;2023-04-12T03:56:04;9.00;;;3.15;;
42602;SDS011;28233;55.748;48.752;2023-04-12T03:58:07;9.27;;;3.03;;
42602;SDS011;28233;55.748;48.752;2023-04-12T04:00:09;9.07;;;3.28;;
42602;SDS011;28233;55.748;48.752;2023-04-12T04:02:13;6.07;;;3.33;;
42602;SDS011;28233;55.748;48.752;2023-04-12T04:04:17;7.30;;;2.80;;
42602;SDS011;28233;55.748;48.752;2023-04-12T04:06:20;8.68;;;3.55;;
42602;SDS011;28233;55.748;48.752;2023-04-12T04:08:23;8.00;;;3.20;;
42602;SDS011;28233;55.748;48.752;2023-04-12T04:10:26;7.80;;;3.45;;
42602;SDS011;28233;55.748;48.752;2023-04-12T04:12:29;5.47;;;3.20;;
42602;SDS011;28233;55.748;48.752;2023-04-12T04:14:32;6.00;;;3.05;;
42602;SDS011;28233;55.748;48.752;2023-04-12T04:16:39;6.28;;;3.53;;
42602;SDS011;28233;55.748;48.752;2023-04-12T04:18:41;6.55;;;3.85;;
42602;SDS011;28233;55.748;48.752;2023-04-12T04:20:44;6.22;;;3.47;;
42602;SDS011;28233;55.748;48.752;2023-04-12T04:22:47;6.55;;;4.05;;
42602;SDS011;28233;55.748;48.752;2023-04-12T04:24:50;5.90;;;3.05;;
42602;SDS011;28233;55.748;48.752;2023-04-12T04:26:52;5.95;;;3.13;;
42602;SDS011;28233;55.748;48.752;2023-04-12T04:28:55;6.88;;;3.50;;
42602;SDS011;28233;55.748;48.752;2023-04-12T04:31:04;11.38;;;3.58;;
42602;SDS011;28233;55.748;48.752;2023-04-12T04:33:07;7.57;;;3.92;;
42602;SDS011;28233;55.748;48.752;2023-04-12T04:35:10;7.82;;;3.47;;
42602;SDS011;28233;55.748;48.752;2023-04-12T04:37:14;9.23;;;4.03;;
42602;SDS011;28233;55.748;48.752;2023-04-12T04:39:17;6.60;;;3.80;;
42602;SDS011;28233;55.748;48.752;2023-04-12T04:41:19;6.97;;;3.63;;
42602;SDS011;28233;55.748;48.752;2023-04-12T04:43:24;5.70;;;3.90;;
42602;SDS011;28233;55.748;48.752;2023-04-12T04:45:27;8.95;;;3.70;;
42602;SDS011;28233;55.748;48.752;2023-04-12T04:47:31;10.40;;;4.32;;
42602;SDS011;28233;55.748;48.752;2023-04-12T04:49:37;9.88;;;4.55;;
42602;SDS011;28233;55.748;48.752;2023-04-12T04:51:40;8.35;;;4.22;;
42602;SDS011;28233;55.748;48.752;2023-04-12T04:53:42;5.85;;;4.10;;
42602;SDS011;28233;55.748;48.752;2023-04-12T04:55:45;9.80;;;4.00;;
42602;SDS011;28233;55.748;48.752;2023-04-12T04:57:49;7.80;;;4.20;;
42602;SDS011;28233;55.748;48.752;2023-04-12T04:59:52;9.80;;;4.13;;
42602;SDS011;28233;55.748;48.752;2023-04-12T05:01:54;7.70;;;3.65;;
42602;SDS011;28233;55.748;48.752;2023-04-12T05:03:57;9.63;;;3.95;;
42602;SDS011;28233;55.748;48.752;2023-04-12T05:06:00;6.60;;;2.92;;
42602;SDS011;28233;55.748;48.752;2023-04-12T05:08:04;9.80;;;3.60;;
42602;SDS011;28233;55.748;48.752;2023-04-12T05:10:07;8.95;;;4.75;;
42602;SDS011;28233;55.748;48.752;2023-04-12T05:12:10;7.38;;;3.78;;
42602;SDS011;28233;55.748;48.752;2023-04-12T05:14:13;10.55;;;3.50;;
42602;SDS011;28233;55.748;48.752;2023-04-12T05:16:17;7.45;;;3.65;;
42602;SDS011;28233;55.748;48.752;2023-04-12T05:18:21;6.50;;;4.10;;
42602;SDS011;28233;55.748;48.752;2023-04-12T05:20:26;7.85;;;3.53;;
42602;SDS011;28233;55.748;48.752;2023-04-12T05:22:30;8.55;;;3.25;;
42602;SDS011;28233;55.748;48.752;2023-04-12T05:24:34;7.47;;;3.83;;
42602;SDS011;28233;55.748;48.752;2023-04-12T05:26:39;5.57;;;3.45;;
42602;SDS011;28233;55.748;48.752;2023-04-12T05:28:42;6.10;;;2.85;;
42602;SDS011;28233;55.748;48.752;2023-04-12T05:30:45;8.48;;;3.17;;
42602;SDS011;28233;55.748;48.752;2023-04-12T05:32:49;6.78;;;3.22;;
42602;SDS011;28233;55.748;48.752;2023-04-12T05:34:52;9.98;;;2.88;;
42602;SDS011;28233;55.748;48.752;2023-04-12T05:36:56;6.63;;;2.83;;
42602;SDS011;28233;55.748;48.752;2023-04-12T05:39:00;8.20;;;3.75;;
42602;SDS011;28233;55.748;48.752;2023-04-12T05:41:04;8.57;;;3.55;;
42602;SDS011;28233;55.748;48.752;2023-04-12T05:43:07;4.95;;;3.13;;
42602;SDS011;28233;55.748;48.752;2023-04-12T05:45:14;6.80;;;2.67;;
42602;SDS011;28233;55.748;48.752;2023-04-12T05:47:17;5.88;;;3.63;;
42602;SDS011;28233;55.748;48.752;2023-04-12T05:49:20;4.55;;;2.53;;
42602;SDS011;28233;55.748;48.752;2023-04-12T05:51:28;7.05;;;2.72;;
42602;SDS011;28233;55.748;48.752;2023-04-12T05:53:42;5.53;;;2.63;;
42602;SDS011;28233;55.748;48.752;2023-04-12T05:55:46;4.72;;;2.63;;
42602;SDS011;28233;55.748;48.752;2023-04-12T05:57:49;6.30;;;2.47;;
42602;SDS011;28233;55.748;48.752;2023-04-12T05:59:54;6.53;;;2.42;;
42602;SDS011;28233;55.748;48.752;2023-04-12T06:01:57;4.90;;;2.42;;
42602;SDS011;28233;55.748;48.752;2023-04-12T06:04:02;3.47;;;2.35;;
42602;SDS011;28233;55.748;48.752;2023-04-12T06:06:06;7.28;;;2.33;;
42602;SDS011;28233;55.748;48.752;2023-04-12T06:08:09;4.68;;;1.90;;
42602;SDS011;28233;55.748;48.752;2023-04-12T06:10:14;5.57;;;2.35;;
42602;SDS011;28233;55.748;48.752;2023-04-12T06:12:19;9.48;;;2.55;;
42602;SDS011;28233;55.748;48.752;2023-04-12T06:14:22;7.10;;;2.17;;
42602;SDS011;28233;55.748;48.752;2023-04-12T06:16:25;8.05;;;2.72;;
42602;SDS011;28233;55.748;48.752;2023-04-12T06:18:29;5.75;;;2.17;;
42602;SDS011;28233;55.748;48.752;2023-04-12T06:20:32;3.40;;;1.90;;
42602;SDS011;28233;55.748;48.752;2023-04-12T06:22:36;4.47;;;3.13;;
42602;SDS011;28233;55.748;48.752;2023-04-12T06:24:39;6.60;;;2.13;;
42602;SDS011;28233;55.748;48.752;2023-04-12T06:26:42;4.28;;;1.70;;
42602;SDS011;28233;55.748;48.752;2023-04-12T06:28:48;4.20;;;1.95;;
42602;SDS011;28233;55.748;48.752;2023-04-12T06:30:51;2.15;;;1.52;;
42602;SDS011;28233;55.748;48.752;2023-04-12T06:32:55;3.75;;;1.67;;
42602;SDS011;28233;55.748;48.752;2023-04-12T06:34:58;2.63;;;1.55;;
42602;SDS011;28233;55.748;48.752;2023-04-12T06:37:00;3.05;;;1.52;;
42602;SDS011;28233;55.748;48.752;2023-04-12T06:39:03;7.38;;;1.77;;
42602;SDS011;28233;55.748;48.752;2023-04-12T06:41:06;3.13;;;1.65;;
42602;SDS011;28233;55.748;48.752;2023-04-12T06:43:08;3.15;;;1.63;;
42602;SDS011;28233;55.748;48.752;2023-04-12T06:45:11;4.80;;;2.10;;
42602;SDS011;28233;55.748;48.752;2023-04-12T06:47:14;4.43;;;1.95;;
42602;SDS011;28233;55.748;48.752;2023-04-12T06:49:17;3.60;;;1.80;;
42602;SDS011;28233;55.748;48.752;2023-04-12T06:51:20;4.05;;;1.52;;
42602;SDS011;28233;55.748;48.752;2023-04-12T06:53:24;4.07;;;2.00;;
42602;SDS011;28233;55.748;48.752;2023-04-12T06:55:26;6.78;;;2.47;;
42602;SDS011;28233;55.748;48.752;2023-04-12T06:57:30;3.92;;;2.47;;
42602;SDS011;28233;55.748;48.752;2023-04-12T06:59:33;3.65;;;2.47;;
42602;SDS011;28233;55.748;48.752;2023-04-12T07:01:36;6.88;;;2.92;;
42602;SDS011;28233;55.748;48.752;2023-04-12T07:03:39;4.35;;;2.17;;
42602;SDS011;28233;55.748;48.752;2023-04-12T07:05:42;4.75;;;2.00;;
42602;SDS011;28233;55.748;48.752;2023-04-12T07:07:46;3.92;;;2.33;;
42602;SDS011;28233;55.748;48.752;2023-04-12T07:09:48;5.70;;;2.60;;
42602;SDS011;28233;55.748;48.752;2023-04-12T07:11:53;5.25;;;2.22;;
42602;SDS011;28233;55.748;48.752;2023-04-12T07:13:56;3.75;;;2.50;;
42602;SDS011;28233;55.748;48.752;2023-04-12T07:16:00;7.97;;;2.78;;
42602;SDS011;28233;55.748;48.752;2023-04-12T07:18:03;4.78;;;2.33;;
42602;SDS011;28233;55.748;48.752;2023-04-12T07:20:06;3.92;;;2.50;;
42602;SDS011;28233;55.748;48.752;2023-04-12T07:22:09;4.10;;;1.83;;
42602;SDS011;28233;55.748;48.752;2023-04-12T07:24:14;5.45;;;2.08;;
42602;SDS011;28233;55.748;48.752;2023-04-12T07:26:17;4.68;;;2.65;;
42602;SDS011;28233;55.748;48.752;2023-04-12T07:28:20;3.45;;;2.08;;
42602;SDS011;28233;55.748;48.752;2023-04-12T07:30:23;5.32;;;2.75;;
42602;SDS011;28233;55.748;48.752;2023-04-12T07:32:26;4.35;;;3.15;;
42602;SDS011;28233;55.748;48.752;2023-04-12T07:34:29;6.90;;;3.17;;
42602;SDS011;28233;55.748;48.752;2023-04-12T07:36:32;5.97;;;2.97;;
42602;SDS011;28233;55.748;48.752;2023-04-12T07:38:35;4.40;;;2.90;;
42602;SDS011;28233;55.748;48.752;2023-04-12T07:40:38;5.65;;;3.20;;
42602;SDS011;28233;55.748;48.752;2023-04-12T07:42:41;7.45;;;3.50;;
42602;SDS011;28233;55.748;48.752;2023-04-12T07:44:43;5.35;;;2.92;;
42602;SDS011;28233;55.748;48.752;2023-04-12T07:46:46;7.40;;;3.90;;
42602;SDS011;28233;55.748;48.752;2023-04-12T07:48:50;5.13;;;3.70;;
42602;SDS011;28233;55.748;48.752;2023-04-12T07:50:52;6.32;;;2.83;;
42602;SDS011;28233;55.748;48.752;2023-04-12T07:53:16;5.57;;;3.42;;
42602;SDS011;28233;55.748;48.752;2023-04-12T07:55:21;7.57;;;3.88;;
42602;SDS011;28233;55.748;48.752;2023-04-12T07:57:24;9.07;;;3.70;;
42602;SDS011;28233;55.748;48.752;2023-04-12T07:59:28;6.20;;;3.83;;
42602;SDS011;28233;55.748;48.752;2023-04-12T08:01:31;5.35;;;3.53;;
42602;SDS011;28233;55.748;48.752;2023-04-12T08:03:34;7.00;;;3.58;;
42602;SDS011;28233;55.748;48.752;2023-04-12T08:05:38;6.93;;;3.90;;
42602;SDS011;28233;55.748;48.752;2023-04-12T08:07:42;11.90;;;4.20;;
42602;SDS011;28233;55.748;48.752;2023-04-12T08:09:45;10.43;;;4.10;;
42602;SDS011;28233;55.748;48.752;2023-04-12T08:11:48;9.75;;;3.63;;
42602;SDS011;28233;55.748;48.752;2023-04-12T08:13:51;10.52;;;3.28;;
42602;SDS011;28233;55.748;48.752;2023-04-12T08:15:54;6.13;;;4.10;;
42602;SDS011;28233;55.748;48.752;2023-04-12T08:17:57;9.50;;;3.55;;
42602;SDS011;28233;55.748;48.752;2023-04-12T08:20:00;10.18;;;3.03;;
42602;SDS011;28233;55.748;48.752;2023-04-12T08:22:05;7.38;;;3.30;;
42602;SDS011;28233;55.748;48.752;2023-04-12T08:24:09;13.35;;;4.05;;
42602;SDS011;28233;55.748;48.752;2023-04-12T08:26:12;6.72;;;3.45;;
42602;SDS011;28233;55.748;48.752;2023-04-12T08:28:14;6.90;;;3.60;;
42602;SDS011;28233;55.748;48.752;2023-04-12T08:30:18;6.75;;;3.80;;
42602;SDS011;28233;55.748;48.752;2023-04-12T08:32:21;6.40;;;3.58;;
42602;SDS011;28233;55.748;48.752;2023-04-12T08:34:25;7.97;;;3.85;;
42602;SDS011;28233;55.748;48.752;2023-04-12T08:36:29;3.92;;;3.00;;
42602;SDS011;28233;55.748;48.752;2023-04-12T08:38:32;6.25;;;3.70;;
42602;SDS011;28233;55.748;48.752;2023-04-12T08:40:46;6.00;;;3.97;;
42602;SDS011;28233;55.748;48.752;2023-04-12T08:42:49;5.95;;;4.18;;
42602;SDS011;28233;55.748;48.752;2023-04-12T08:44:54;5.72;;;3.70;;
42602;SDS011;28233;55.748;48.752;2023-04-12T08:46:56;6.05;;;4.07;;
42602;SDS011;28233;55.748;48.752;2023-04-12T08:48:59;6.50;;;3.72;;
42602;SDS011;28233;55.748;48.752;2023-04-12T08:51:02;9.10;;;3.60;;
42602;SDS011;28233;55.748;48.752;2023-04-12T08:53:06;8.60;;;3.85;;
42602;SDS011;28233;55.748;48.752;2023-04-12T08:55:11;8.57;;;3.58;;
42602;SDS011;28233;55.748;48.752;2023-04-12T08:57:14;10.88;;;3.90;;
42602;SDS011;28233;55.748;48.752;2023-04-12T08:59:20;5.75;;;4.28;;
42602;SDS011;28233;55.748;48.752;2023-04-12T09:01:23;7.50;;;3.30;;
42602;SDS011;28233;55.748;48.752;2023-04-12T09:03:27;8.15;;;3.92;;
42602;SDS011;28233;55.748;48.752;2023-04-12T09:05:34;7.63;;;3.90;;
42602;SDS011;28233;55.748;48.752;2023-04-12T09:07:37;6.53;;;3.92;;
42602;SDS011;28233;55.748;48.752;2023-04-12T09:09:43;5.05;;;3.67;;
42602;SDS011;28233;55.748;48.752;2023-04-12T09:11:47;5.03;;;4.07;;
42602;SDS011;28233;55.748;48.752;2023-04-12T09:13:50;6.28;;;4.15;;
42602;SDS011;28233;55.748;48.752;2023-04-12T09:15:54;11.00;;;3.92;;
42602;SDS011;28233;55.748;48.752;2023-04-12T09:18:10;9.07;;;4.18;;
42602;SDS011;28233;55.748;48.752;2023-04-12T09:22:35;7.10;;;4.20;;
42602;SDS011;28233;55.748;48.752;2023-04-12T09:24:44;7.07;;;3.88;;
42602;SDS011;28233;55.748;48.752;2023-04-12T09:27:05;15.25;;;4.25;;
42602;SDS011;28233;55.748;48.752;2023-04-12T09:29:23;11.15;;;4.80;;
42602;SDS011;28233;55.748;48.752;2023-04-12T09:31:27;8.45;;;4.80;;
42602;SDS011;28233;55.748;48.752;2023-04-12T09:33:33;6.75;;;3.90;;
42602;SDS011;28233;55.748;48.752;2023-04-12T09:35:40;9.80;;;3.88;;
42602;SDS011;28233;55.748;48.752;2023-04-12T09:37:44;6.57;;;3.78;;
42602;SDS011;28233;55.748;48.752;2023-04-12T09:39:47;6.07;;;4.22;;
42602;SDS011;28233;55.748;48.752;2023-04-12T09:42:05;11.15;;;3.72;;
42602;SDS011;28233;55.748;48.752;2023-04-12T09:44:28;7.28;;;4.28;;
42602;SDS011;28233;55.748;48.752;2023-04-12T09:46:31;8.13;;;3.95;;
42602;SDS011;28233;55.748;48.752;2023-04-12T09:48:35;7.43;;;3.90;;
42602;SDS011;28233;55.748;48.752;2023-04-12T09:50:40;7.60;;;3.83;;
42602;SDS011;28233;55.748;48.752;2023-04-12T09:52:43;7.90;;;4.25;;
42602;SDS011;28233;55.748;48.752;2023-04-12T09:54:47;7.20;;;4.32;;
42602;SDS011;28233;55.748;48.752;2023-04-12T09:56:49;6.97;;;4.47;;
42602;SDS011;28233;55.748;48.752;2023-04-12T09:58:52;6.15;;;4.57;;
42602;SDS011;28233;55.748;48.752;2023-04-12T10:00:57;6.93;;;4.47;;
42602;SDS011;28233;55.748;48.752;2023-04-12T10:03:03;11.95;;;4.50;;
42602;SDS011;28233;55.748;48.752;2023-04-12T10:05:09;8.18;;;4.45;;
42602;SDS011;28233;55.748;48.752;2023-04-12T10:07:14;7.25;;;4.25;;
42602;SDS011;28233;55.748;48.752;2023-04-12T10:09:18;7.22;;;4.32;;
42602;SDS011;28233;55.748;48.752;2023-04-12T10:11:20;7.38;;;4.13;;
42602;SDS011;28233;55.748;48.752;2023-04-12T10:13:23;6.32;;;3.53;;
42602;SDS011;28233;55.748;48.752;2023-04-12T10:15:28;5.65;;;3.88;;
42602;SDS011;28233;55.748;48.752;2023-04-12T10:17:33;9.10;;;3.72;;
42602;SDS011;28233;55.748;48.752;2023-04-12T10:19:37;7.82;;;4.22;;
42602;SDS011;28233;55.748;48.752;2023-04-12T10:21:41;10.73;;;5.18;;
42602;SDS011;28233;55.748;48.752;2023-04-12T10:23:44;6.28;;;3.95;;
42602;SDS011;28233;55.748;48.752;2023-04-12T10:25:48;6.55;;;4.40;;
42602;SDS011;28233;55.748;48.752;2023-04-12T10:27:51;5.43;;;3.42;;
42602;SDS011;28233;55.748;48.752;2023-04-12T10:29:54;7.38;;;4.32;;
42602;SDS011;28233;55.748;48.752;2023-04-12T10:32:24;8.88;;;4.88;;
42602;SDS011;28233;55.748;48.752;2023-04-12T10:34:30;5.85;;;4.20;;
42602;SDS011;28233;55.748;48.752;2023-04-12T10:36:52;6.22;;;3.85;;
42602;SDS011;28233;55.748;48.752;2023-04-12T10:39:07;5.45;;;4.25;;
42602;SDS011;28233;55.748;48.752;2023-04-12T10:52:33;6.40;;;4.15;;
42602;SDS011;28233;55.748;48.752;2023-04-12T10:54:40;9.80;;;4.50;;
42602;SDS011;28233;55.748;48.752;2023-04-12T10:56:43;7.68;;;3.97;;
42602;SDS011;28233;55.748;48.752;2023-04-12T11:03:03;4.13;;;3.47;;
42602;SDS011;28233;55.748;48.752;2023-04-12T11:05:09;5.35;;;3.78;;
42602;SDS011;28233;55.748;48.752;2023-04-12T11:07:12;5.82;;;3.78;;
42602;SDS011;28233;55.748;48.752;2023-04-12T11:09:16;6.05;;;3.53;;
42602;SDS011;28233;55.748;48.752;2023-04-12T11:11:20;7.72;;;4.10;;
42602;SDS011;28233;55.748;48.752;2023-04-12T11:13:24;6.43;;;3.90;;
42602;SDS011;28233;55.748;48.752;2023-04-12T11:15:28;5.45;;;4.07;;
42602;SDS011;28233;55.748;48.752;2023-04-12T11:17:35;9.00;;;3.95;;
42602;SDS011;28233;55.748;48.752;2023-04-12T11:19:40;10.77;;;4.50;;
42602;SDS011;28233;55.748;48.752;2023-04-12T11:21:50;7.22;;;3.75;;
42602;SDS011;28233;55.748;48.752;2023-04-12T11:23:53;5.72;;;3.75;;
42602;SDS011;28233;55.748;48.752;2023-04-12T11:25:56;4.13;;;3.05;;
42602;SDS011;28233;55.748;48.752;2023-04-12T11:28:00;5.40;;;3.88;;
42602;SDS011;28233;55.748;48.752;2023-04-12T11:30:05;7.00;;;4.25;;
42602;SDS011;28233;55.748;48.752;2023-04-12T11:32:09;7.18;;;4.13;;
42602;SDS011;28233;55.748;48.752;2023-04-12T11:34:17;6.32;;;4.57;;
42602;SDS011;28233;55.748;48.752;2023-04-12T11:36:21;5.78;;;3.72;;
42602;SDS011;28233;55.748;48.752;2023-04-12T11:38:23;5.75;;;3.42;;
42602;SDS011;28233;55.748;48.752;2023-04-12T11:40:26;8.85;;;4.00;;
42602;SDS011;28233;55.748;48.752;2023-04-12T11:42:29;6.43;;;3.50;;
42602;SDS011;28233;55.748;48.752;2023-04-12T11:44:34;4.10;;;3.42;;
42602;SDS011;28233;55.748;48.752;2023-04-12T11:46:56;9.23;;;4.35;;
42602;SDS011;28233;55.748;48.752;2023-04-12T11:48:59;6.90;;;3.45;;
42602;SDS011;28233;55.748;48.752;2023-04-12T11:51:20;5.28;;;3.28;;
42602;SDS011;28233;55.748;48.752;2023-04-12T11:53:27;4.32;;;3.30;;
42602;SDS011;28233;55.748;48.752;2023-04-12T11:55:33;5.82;;;4.30;;
42602;SDS011;28233;55.748;48.752;2023-04-12T11:57:36;6.85;;;3.35;;
42602;SDS011;28233;55.748;48.752;2023-04-12T11:59:41;5.78;;;4.40;;
42602;SDS011;28233;55.748;48.752;2023-04-12T12:01:49;5.55;;;3.78;;
42602;SDS011;28233;55.748;48.752;2023-04-12T12:03:52;8.68;;;3.88;;
42602;SDS011;28233;55.748;48.752;2023-04-12T12:05:56;5.70;;;3.88;;
42602;SDS011;28233;55.748;48.752;2023-04-12T12:08:00;7.55;;;4.32;;
42602;SDS011;28233;55.748;48.752;2023-04-12T12:10:07;6.13;;;3.22;;
42602;SDS011;28233;55.748;48.752;2023-04-12T12:12:11;8.02;;;3.72;;
42602;SDS011;28233;55.748;48.752;2023-04-12T12:14:18;5.68;;;3.85;;
42602;SDS011;28233;55.748;48.752;2023-04-12T12:16:25;8.55;;;3.78;;
42602;SDS011;28233;55.748;48.752;2023-04-12T12:18:29;5.40;;;4.07;;
42602;SDS011;28233;55.748;48.752;2023-04-12T12:20:32;4.70;;;3.20;;
42602;SDS011;28233;55.748;48.752;2023-04-12T12:22:44;9.73;;;4.45;;
42602;SDS011;28233;55.748;48.752;2023-04-12T12:24:49;9.45;;;4.50;;
42602;SDS011;28233;55.748;48.752;2023-04-12T12:27:01;5.32;;;4.00;;
42602;SDS011;28233;55.748;48.752;2023-04-12T12:29:04;5.50;;;4.07;;
42602;SDS011;28233;55.748;48.752;2023-04-12T12:31:10;6.72;;;4.32;;
42602;SDS011;28233;55.748;48.752;2023-04-12T12:33:17;8.52;;;4.50;;
42602;SDS011;28233;55.748;48.752;2023-04-12T12:35:27;9.88;;;4.43;;
42602;SDS011;28233;55.748;48.752;2023-04-12T12:37:35;6.28;;;4.30;;
42602;SDS011;28233;55.748;48.752;2023-04-12T12:39:38;6.13;;;4.22;;
42602;SDS011;28233;55.748;48.752;2023-04-12T12:41:41;6.18;;;4.30;;
42602;SDS011;28233;55.748;48.752;2023-04-12T12:43:50;6.78;;;3.85;;
42602;SDS011;28233;55.748;48.752;2023-04-12T12:45:54;5.68;;;4.28;;
42602;SDS011;28233;55.748;48.752;2023-04-12T12:47:57;8.40;;;4.20;;